createdAt,value
2022-12-14T00:08:43.298Z,86.60
2022-12-14T00:28:48.782Z,84.40
2022-12-14T01:18:59.696Z,83.00
2022-12-14T01:39:13.421Z,82.60
2022-12-14T01:49:18.785Z,81.90
2022-12-14T01:59:26.688Z,84.00
2022-12-14T02:09:33.406Z,82.50
2022-12-14T02:19:36.855Z,82.60
2022-12-14T02:29:49.116Z,81.10
2022-12-14T02:50:09.199Z,81.20
2022-12-14T03:10:49.747Z,79.90
2022-12-14T03:20:55.305Z,80.10
2022-12-14T03:31:09.049Z,78.60
2022-12-14T03:41:17.192Z,81.50
2022-12-14T03:51:35.811Z,77.70
2022-12-14T04:12:07.149Z,78.50
2022-12-14T04:22:19.305Z,78.30
2022-12-14T04:32:33.849Z,77.60
2022-12-14T04:42:50.747Z,78.10
2022-12-14T04:53:01.169Z,78.00
2022-12-14T05:03:19.882Z,77.30
2022-12-14T05:13:59.083Z,77.40
2022-12-14T06:04:15.662Z,76.40
2022-12-14T09:45:21.835Z,78.50
2022-12-14T09:55:46.453Z,81.20
2022-12-14T10:06:00.875Z,81.10
2022-12-14T10:16:08.230Z,80.50
2022-12-14T10:36:35.468Z,80.80
2022-12-14T10:56:42.032Z,82.20
2022-12-14T11:43:26.188Z,84.60
2022-12-14T12:03:36.211Z,87.80
2022-12-14T12:13:45.038Z,87.10
2022-12-14T12:24:01.540Z,87.80
2022-12-14T12:34:12.129Z,88.40
2022-12-14T12:44:49.877Z,88.50
2022-12-14T12:54:57.196Z,89.00
2022-12-14T13:05:16.562Z,89.80
2022-12-14T13:15:27.581Z,90.00
2022-12-14T13:25:46.962Z,89.60
2022-12-14T13:35:58.230Z,90.30
2022-12-14T13:46:07.144Z,90.40
2022-12-14T13:56:09.794Z,90.50
2022-12-14T14:06:41.692Z,90.40
2022-12-14T14:16:46.799Z,90.70
2022-12-14T14:27:10.729Z,91.00
2022-12-14T14:37:22.519Z,90.60
2022-12-14T14:57:54.321Z,90.80
2022-12-14T15:07:56.729Z,91.20
2022-12-14T15:18:20.336Z,91.30
2022-12-14T15:28:23.950Z,91.60
2022-12-14T15:38:30.628Z,91.70
2022-12-14T15:48:34.820Z,91.80
2022-12-14T15:58:39.977Z,92.00
2022-12-14T16:09:02.370Z,92.30
2022-12-14T16:19:26.080Z,92.90
2022-12-14T16:29:33.721Z,92.80
2022-12-14T16:39:44.407Z,92.70
2022-12-14T16:49:57.821Z,92.90
2022-12-14T17:00:01.952Z,93.40
2022-12-14T17:10:05.218Z,93.10
2022-12-14T17:20:14.088Z,94.30
2022-12-14T17:30:18.434Z,92.60
2022-12-14T18:00:48.450Z,93.40
2022-12-14T18:10:57.359Z,93.30
2022-12-14T18:21:01.484Z,93.20
2022-12-14T18:31:06.084Z,92.60
2022-12-14T18:51:26.681Z,92.80
2022-12-14T19:11:38.681Z,93.00
2022-12-14T21:22:27.216Z,93.70
